createdAt,value
2022-09-23T00:01:53.200Z,20.86
2022-09-23T00:04:18.911Z,20.86
2022-09-23T00:06:44.495Z,20.87
2022-09-23T00:09:10.033Z,20.87
2022-09-23T00:11:35.581Z,20.86
2022-09-23T00:14:01.127Z,20.87
2022-09-23T00:16:28.009Z,20.87
2022-09-23T00:18:53.641Z,20.87
2022-09-23T00:21:19.476Z,20.86
2022-09-23T00:23:45.023Z,20.86
2022-09-23T00:26:11.544Z,20.87
2022-09-23T00:28:37.567Z,20.86
2022-09-23T00:31:03.987Z,20.87
2022-09-23T00:33:29.560Z,20.87
2022-09-23T00:35:58.988Z,20.87
2022-09-23T00:38:24.533Z,20.86
2022-09-23T00:40:50.113Z,20.87
2022-09-23T00:43:16.450Z,20.88
2022-09-23T00:45:42.488Z,20.84
2022-09-23T00:48:08.303Z,20.86
2022-09-23T00:50:35.136Z,20.86
2022-09-23T00:53:00.980Z,20.87
2022-09-23T00:55:28.171Z,20.88
2022-09-23T00:57:54.097Z,20.87
2022-09-23T01:00:19.657Z,20.86
2022-09-23T01:02:45.876Z,20.87
2022-09-23T01:05:11.573Z,20.86
2022-09-23T01:07:37.119Z,20.86
2022-09-23T01:10:02.714Z,20.85
2022-09-23T01:12:36.114Z,20.86
2022-09-23T01:15:05.440Z,20.86
2022-09-23T01:17:35.259Z,20.86
2022-09-23T01:20:20.681Z,20.86
2022-09-23T01:23:06.112Z,20.85
2022-09-23T01:25:42.944Z,20.85
2022-09-23T01:28:17.083Z,20.84
2022-09-23T01:31:00.782Z,20.85
2022-09-23T01:33:30.979Z,20.83
2022-09-23T01:36:18.164Z,20.82
2022-09-23T01:39:03.641Z,20.83
2022-09-23T01:41:33.512Z,20.84
2022-09-23T01:44:17.604Z,20.84
2022-09-23T01:46:46.471Z,20.83
2022-09-23T01:49:14.651Z,20.84
2022-09-23T01:51:41.988Z,20.84
2022-09-23T01:54:09.746Z,20.84
2022-09-23T01:56:37.899Z,20.83
2022-09-23T02:01:46.807Z,20.84
2022-09-23T02:04:14.605Z,20.86
2022-09-23T02:06:41.659Z,20.85
2022-09-23T02:09:08.484Z,20.84
2022-09-23T02:11:35.488Z,20.84
2022-09-23T02:14:03.743Z,20.85
2022-09-23T02:16:31.255Z,20.84
2022-09-23T02:19:12.996Z,20.84
2022-09-23T02:21:40.296Z,20.85
2022-09-23T02:24:08.310Z,20.83
2022-09-23T02:26:34.939Z,20.82
2022-09-23T02:29:04.371Z,20.81
2022-09-23T02:31:32.837Z,20.84
2022-09-23T02:34:01.028Z,20.83
2022-09-23T02:36:30.675Z,20.82
2022-09-23T02:38:57.064Z,20.83
2022-09-23T02:41:42.488Z,20.83
2022-09-23T02:44:08.518Z,20.81
2022-09-23T02:46:34.108Z,20.82
2022-09-23T02:49:00.531Z,20.83
2022-09-23T02:51:27.947Z,20.82
2022-09-23T02:53:55.487Z,20.82
2022-09-23T02:56:21.169Z,20.83
2022-09-23T02:58:47.859Z,20.82
2022-09-23T03:01:25.449Z,20.83
2022-09-23T03:03:56.282Z,20.83
2022-09-23T03:06:26.887Z,20.82
2022-09-23T03:08:56.792Z,20.83
2022-09-23T03:11:23.873Z,20.83
2022-09-23T03:14:16.092Z,20.83
2022-09-23T03:16:43.849Z,20.83
2022-09-23T03:19:15.783Z,20.83
2022-09-23T03:21:44.351Z,20.82
2022-09-23T03:24:10.003Z,20.83
2022-09-23T03:26:35.922Z,20.83
2022-09-23T03:29:02.085Z,20.83
2022-09-23T03:31:28.871Z,20.82
2022-09-23T03:33:55.132Z,20.83
2022-09-23T03:36:41.867Z,20.81
2022-09-23T03:39:09.704Z,20.82
2022-09-23T03:41:38.003Z,20.83
2022-09-23T03:44:03.543Z,20.83
2022-09-23T03:46:29.352Z,20.82
2022-09-23T03:48:56.753Z,20.82
2022-09-23T03:51:23.028Z,20.80
2022-09-23T03:53:49.227Z,20.81
2022-09-23T03:56:14.782Z,20.80
2022-09-23T03:58:40.330Z,20.82
2022-09-23T04:01:05.968Z,20.82
2022-09-23T04:03:31.552Z,20.83
2022-09-23T04:05:57.105Z,20.82
2022-09-23T04:08:22.784Z,20.82
2022-09-23T04:10:52.897Z,20.80
2022-09-23T04:13:20.252Z,20.80
2022-09-23T04:15:48.793Z,20.79
2022-09-23T04:18:14.340Z,20.79
2022-09-23T04:20:39.881Z,20.81
2022-09-23T04:23:05.437Z,20.78
2022-09-23T04:25:31.272Z,20.80
2022-09-23T04:27:56.825Z,20.80
2022-09-23T04:30:22.366Z,20.81
2022-09-23T04:32:47.917Z,20.81
2022-09-23T04:35:13.654Z,20.81
2022-09-23T04:37:39.203Z,20.82
2022-09-23T04:40:04.982Z,20.79
2022-09-23T04:42:30.597Z,20.79
2022-09-23T04:44:57.052Z,20.78
2022-09-23T04:47:22.600Z,20.78
2022-09-23T04:49:48.159Z,20.80
2022-09-23T04:52:13.703Z,20.80
2022-09-23T04:54:40.026Z,20.82
2022-09-23T04:57:05.580Z,20.82
2022-09-23T04:59:31.125Z,20.82
2022-09-23T05:01:56.700Z,20.82
2022-09-23T05:04:22.256Z,20.80
2022-09-23T05:06:48.420Z,20.76
2022-09-23T05:09:15.475Z,20.78
2022-09-23T05:11:41.016Z,20.80
2022-09-23T05:14:06.563Z,20.65
2022-09-23T05:16:32.231Z,19.87
2022-09-23T05:18:58.598Z,19.62
2022-09-23T05:21:26.088Z,19.51
2022-09-23T05:23:54.274Z,19.63
2022-09-23T05:26:20.435Z,19.67
2022-09-23T05:28:45.972Z,19.77
2022-09-23T05:31:19.665Z,19.71
2022-09-23T05:33:47.954Z,19.81
2022-09-23T05:36:13.781Z,19.88
2022-09-23T05:38:39.521Z,19.97
2022-09-23T05:41:06.400Z,20.07
2022-09-23T05:43:31.976Z,20.04
2022-09-23T05:46:02.279Z,20.11
2022-09-23T05:48:30.772Z,20.04
2022-09-23T05:50:56.307Z,20.15
2022-09-23T05:53:22.048Z,20.12
2022-09-23T05:55:47.583Z,19.85
2022-09-23T05:58:13.256Z,20.02
2022-09-23T06:00:39.724Z,20.08
2022-09-23T06:03:05.630Z,20.00
2022-09-23T06:05:31.178Z,19.83
2022-09-23T06:07:57.564Z,19.61
2022-09-23T06:10:23.097Z,19.65
2022-09-23T06:12:49.235Z,19.78
2022-09-23T06:15:14.866Z,19.64
2022-09-23T06:17:40.418Z,19.56
2022-09-23T06:20:06.190Z,19.73
2022-09-23T06:22:32.717Z,19.64
2022-09-23T06:24:59.742Z,19.78
2022-09-23T06:27:25.287Z,19.88
2022-09-23T06:29:51.576Z,19.68
2022-09-23T06:32:17.525Z,19.66
2022-09-23T06:34:51.671Z,19.63
2022-09-23T06:37:20.490Z,19.53
2022-09-23T06:39:46.289Z,19.64
2022-09-23T06:42:12.690Z,19.41
2022-09-23T06:44:38.232Z,19.72
2022-09-23T06:47:03.832Z,19.78
2022-09-23T06:49:30.649Z,19.90
2022-09-23T06:51:56.202Z,19.88
2022-09-23T06:54:21.755Z,19.83
2022-09-23T06:56:47.305Z,19.98
2022-09-23T06:59:16.079Z,20.07
2022-09-23T07:01:42.208Z,19.83
2022-09-23T07:04:08.815Z,20.06
2022-09-23T07:06:34.475Z,20.30
2022-09-23T07:09:00.194Z,20.43
2022-09-23T07:11:26.199Z,20.48
2022-09-23T07:13:51.743Z,20.53
2022-09-23T07:16:17.426Z,20.49
2022-09-23T07:18:44.237Z,20.56
2022-09-23T07:21:14.146Z,20.58
2022-09-23T07:23:40.731Z,20.57
2022-09-23T07:26:07.196Z,20.59
2022-09-23T07:28:32.845Z,20.58
2022-09-23T07:31:02.231Z,20.60
2022-09-23T07:33:33.106Z,20.59
2022-09-23T07:35:59.217Z,20.61
2022-09-23T07:38:29.073Z,20.63
2022-09-23T07:40:59.396Z,20.62
2022-09-23T07:43:27.459Z,20.65
2022-09-23T07:45:53.672Z,20.64
2022-09-23T07:48:19.477Z,20.64
2022-09-23T07:50:45.021Z,20.66
2022-09-23T07:53:11.281Z,20.67
2022-09-23T07:55:36.826Z,20.66
2022-09-23T07:58:02.383Z,20.69
2022-09-23T08:00:27.922Z,20.68
2022-09-23T08:02:53.601Z,20.69
2022-09-23T08:05:19.159Z,20.69
2022-09-23T08:07:44.795Z,20.71
2022-09-23T08:10:10.346Z,20.71
2022-09-23T08:12:35.901Z,20.70
2022-09-23T08:15:02.206Z,20.73
2022-09-23T08:17:27.754Z,20.73
2022-09-23T08:19:53.300Z,20.73
2022-09-23T08:22:20.029Z,20.71
2022-09-23T08:24:45.586Z,20.73
2022-09-23T08:27:11.873Z,20.76
2022-09-23T08:29:37.418Z,20.75
2022-09-23T08:32:02.973Z,20.74
2022-09-23T08:34:28.522Z,20.75
2022-09-23T08:36:54.070Z,20.77
2022-09-23T08:39:19.734Z,20.77
2022-09-23T08:41:58.812Z,20.75
2022-09-23T08:44:42.661Z,20.78
2022-09-23T08:49:56.504Z,20.76
2022-09-23T08:52:26.451Z,20.67
2022-09-23T08:54:55.489Z,20.74
2022-09-23T08:57:29.521Z,20.78
2022-09-23T08:59:55.057Z,20.76
2022-09-23T09:02:21.055Z,20.77
2022-09-23T09:04:47.618Z,20.78
2022-09-23T09:10:17.818Z,20.78
2022-09-23T09:12:44.452Z,20.79
2022-09-23T09:15:26.451Z,20.78
2022-09-23T09:18:11.982Z,20.78
2022-09-23T09:20:50.891Z,20.80
2022-09-23T09:23:33.511Z,20.78
2022-09-23T09:26:00.638Z,20.80
2022-09-23T09:28:30.181Z,20.80
2022-09-23T09:30:56.672Z,20.82
2022-09-23T09:33:24.745Z,20.84
2022-09-23T09:36:00.527Z,20.82
2022-09-23T09:38:26.396Z,20.86
2022-09-23T09:40:51.983Z,20.87
2022-09-23T09:43:22.559Z,20.87
2022-09-23T09:46:08.382Z,20.86
2022-09-23T09:48:37.822Z,20.86
2022-09-23T09:51:20.631Z,20.92
2022-09-23T09:53:46.284Z,20.92
2022-09-23T09:56:12.732Z,20.91
2022-09-23T09:58:48.175Z,20.89
2022-09-23T10:01:17.784Z,20.76
2022-09-23T10:03:43.351Z,20.90
2022-09-23T10:06:13.194Z,20.90
2022-09-23T10:08:38.787Z,20.91
2022-09-23T10:11:06.121Z,20.90
2022-09-23T10:13:31.783Z,20.90
2022-09-23T10:15:57.670Z,20.91
2022-09-23T10:18:28.996Z,20.91
2022-09-23T10:21:02.092Z,20.92
2022-09-23T10:23:27.770Z,20.92
2022-09-23T10:26:01.500Z,20.92
2022-09-23T10:28:31.582Z,20.91
2022-09-23T10:31:05.373Z,20.90
2022-09-23T10:33:31.038Z,20.89
2022-09-23T10:35:56.652Z,20.92
2022-09-23T10:38:22.207Z,20.96
2022-09-23T10:46:39.368Z,20.97
2022-09-23T10:49:24.944Z,20.94
2022-09-23T10:51:56.418Z,20.94
2022-09-23T10:54:41.848Z,20.96
2022-09-23T10:57:34.985Z,20.95
2022-09-23T11:00:08.081Z,20.97
2022-09-23T11:02:42.385Z,20.96
2022-09-23T11:05:27.836Z,20.95
2022-09-23T11:07:58.730Z,20.96
2022-09-23T11:10:46.558Z,20.95
2022-09-23T11:13:17.527Z,21.01
2022-09-23T11:15:48.583Z,21.00
2022-09-23T11:18:34.006Z,21.01
2022-09-23T11:21:05.930Z,21.03
2022-09-23T11:23:36.266Z,20.99
2022-09-23T11:26:12.875Z,20.99
2022-09-23T11:28:50.146Z,20.98
2022-09-23T11:31:36.221Z,21.03
2022-09-23T11:34:21.807Z,21.10
2022-09-23T11:36:50.214Z,21.08
2022-09-23T11:39:18.474Z,21.07
2022-09-23T11:41:44.022Z,21.06
2022-09-23T11:46:57.503Z,21.07
2022-09-23T11:49:26.594Z,21.12
2022-09-23T11:52:12.165Z,21.12
2022-09-23T11:54:57.659Z,21.09
2022-09-23T11:57:36.742Z,21.07
2022-09-23T12:00:12.143Z,20.84
2022-09-23T12:05:32.623Z,21.01
2022-09-23T12:08:18.218Z,21.03
2022-09-23T12:10:51.727Z,21.01
2022-09-23T12:13:23.610Z,21.03
2022-09-23T12:16:09.155Z,20.99
2022-09-23T12:18:45.282Z,21.00
2022-09-23T12:21:33.051Z,21.01
2022-09-23T12:24:04.869Z,21.01
2022-09-23T12:26:30.429Z,20.98
2022-09-23T12:28:59.241Z,21.05
2022-09-23T12:31:29.763Z,21.02
2022-09-23T12:33:55.798Z,21.01
2022-09-23T12:36:26.106Z,20.99
2022-09-23T12:38:52.551Z,20.96
2022-09-23T12:41:38.031Z,20.98
2022-09-23T12:44:13.472Z,20.98
2022-09-23T12:46:39.494Z,21.02
2022-09-23T12:49:07.751Z,21.05
2022-09-23T12:51:34.069Z,21.04
2022-09-23T12:54:06.069Z,21.07
2022-09-23T13:01:52.681Z,20.99
2022-09-23T13:04:58.188Z,21.02
2022-09-23T13:07:25.351Z,21.05
2022-09-23T13:09:51.724Z,21.05
2022-09-23T13:12:33.860Z,21.03
2022-09-23T13:15:02.600Z,21.07
2022-09-23T13:17:36.217Z,21.05
2022-09-23T13:22:59.183Z,21.03
2022-09-23T13:25:25.693Z,21.04
2022-09-23T13:27:52.802Z,21.04
2022-09-23T13:30:23.664Z,21.07
2022-09-23T13:32:58.859Z,21.11
2022-09-23T13:35:26.373Z,21.08
2022-09-23T13:37:52.047Z,21.04
2022-09-23T13:40:22.916Z,21.07
2022-09-23T13:42:54.217Z,21.08
2022-09-23T13:45:20.435Z,21.08
2022-09-23T13:47:46.119Z,21.08
2022-09-23T13:50:16.070Z,21.12
2022-09-23T13:52:41.611Z,21.15
2022-09-23T13:55:22.465Z,21.17
2022-09-23T13:57:48.007Z,21.17
2022-09-23T14:00:17.670Z,21.18
2022-09-23T14:02:43.415Z,21.19
2022-09-23T14:05:11.642Z,21.20
2022-09-23T14:07:37.179Z,21.16
2022-09-23T14:10:04.364Z,21.15
2022-09-23T14:12:29.905Z,21.13
2022-09-23T14:14:56.338Z,21.17
2022-09-23T14:17:22.924Z,21.16
2022-09-23T14:19:48.647Z,21.10
2022-09-23T14:22:29.196Z,21.02
2022-09-23T14:24:55.108Z,21.03
2022-09-23T14:27:26.572Z,21.02
2022-09-23T14:29:52.120Z,21.03
2022-09-23T14:32:20.158Z,21.05
2022-09-23T14:34:47.482Z,21.03
2022-09-23T14:37:52.921Z,21.04
2022-09-23T14:40:19.738Z,21.03
2022-09-23T14:42:46.142Z,21.02
2022-09-23T14:45:16.022Z,21.02
2022-09-23T14:47:42.705Z,21.01
2022-09-23T14:50:33.675Z,21.02
2022-09-23T14:52:59.213Z,21.02
2022-09-23T14:55:26.737Z,21.02
2022-09-23T14:57:59.127Z,21.04
2022-09-23T15:00:24.979Z,21.04
2022-09-23T15:02:58.543Z,21.03
2022-09-23T15:05:40.324Z,20.99
2022-09-23T15:08:05.899Z,21.01
2022-09-23T15:10:32.410Z,20.99
2022-09-23T15:13:03.695Z,21.00
2022-09-23T15:15:29.251Z,20.99
2022-09-23T15:17:54.828Z,20.99
2022-09-23T15:20:22.024Z,21.01
2022-09-23T15:22:49.846Z,21.03
2022-09-23T15:25:17.579Z,21.01
2022-09-23T15:27:54.426Z,20.99
2022-09-23T15:30:20.137Z,20.99
2022-09-23T15:32:45.815Z,21.00
2022-09-23T15:35:14.814Z,21.00
2022-09-23T15:37:41.161Z,21.02
2022-09-23T15:40:11.096Z,21.01
2022-09-23T15:42:37.578Z,21.01
2022-09-23T15:45:03.377Z,20.99
2022-09-23T15:47:28.919Z,20.97
2022-09-23T15:49:54.473Z,20.99
2022-09-23T15:52:21.243Z,20.96
2022-09-23T15:54:46.789Z,20.96
2022-09-23T15:57:12.330Z,20.97
2022-09-23T15:59:37.886Z,20.97
2022-09-23T16:02:06.976Z,20.99
2022-09-23T16:04:32.559Z,20.99
2022-09-23T16:06:58.174Z,20.99
2022-09-23T16:09:23.900Z,20.96
2022-09-23T16:11:50.354Z,20.96
2022-09-23T16:14:16.305Z,20.98
2022-09-23T16:16:44.021Z,20.98
2022-09-23T16:19:10.452Z,20.97
2022-09-23T16:21:36.025Z,20.98
2022-09-23T16:24:01.609Z,20.97
2022-09-23T16:26:28.805Z,20.97
2022-09-23T16:28:54.962Z,20.96
2022-09-23T16:31:21.255Z,20.95
2022-09-23T16:33:47.489Z,20.96
2022-09-23T16:36:30.260Z,20.99
2022-09-23T16:38:56.068Z,20.96
2022-09-23T16:41:22.654Z,20.95
2022-09-23T16:43:49.602Z,20.96
2022-09-23T16:46:15.806Z,20.96
2022-09-23T16:48:41.528Z,20.95
2022-09-23T16:51:07.355Z,20.96
2022-09-23T16:53:34.059Z,20.95
2022-09-23T16:56:08.737Z,20.95
2022-09-23T16:58:35.744Z,20.95
2022-09-23T17:01:21.219Z,20.95
2022-09-23T17:03:47.001Z,20.95
2022-09-23T17:06:12.968Z,20.95
2022-09-23T17:08:39.955Z,20.93
2022-09-23T17:11:05.562Z,20.95
2022-09-23T17:13:31.624Z,20.94
2022-09-23T17:15:57.310Z,20.95
2022-09-23T17:18:22.881Z,20.94
2022-09-23T17:20:56.287Z,20.94
2022-09-23T17:23:21.830Z,20.94
2022-09-23T17:25:47.633Z,20.95
2022-09-23T17:28:13.180Z,20.95
2022-09-23T17:30:39.807Z,20.93
2022-09-23T17:33:05.429Z,20.94
2022-09-23T17:35:30.973Z,20.94
2022-09-23T17:37:56.512Z,20.94
2022-09-23T17:40:25.252Z,20.94
2022-09-23T17:42:52.414Z,20.93
2022-09-23T17:45:18.153Z,20.94
2022-09-23T17:47:50.323Z,20.93
2022-09-23T17:50:16.171Z,20.93
2022-09-23T17:52:41.718Z,20.92
2022-09-23T17:55:07.635Z,20.93
2022-09-23T17:57:33.174Z,20.93
2022-09-23T17:59:58.726Z,20.93
2022-09-23T18:02:24.302Z,20.94
2022-09-23T18:04:49.900Z,20.94
2022-09-23T18:07:15.443Z,20.92
2022-09-23T18:09:40.995Z,20.91
2022-09-23T18:12:06.534Z,20.94
2022-09-23T18:14:32.098Z,20.93
2022-09-23T18:16:57.635Z,20.93
2022-09-23T18:19:23.879Z,20.91
2022-09-23T18:21:50.264Z,20.93
2022-09-23T18:24:33.146Z,20.92
2022-09-23T18:26:59.267Z,20.93
2022-09-23T18:29:24.981Z,20.92
2022-09-23T18:31:50.651Z,20.91
2022-09-23T18:34:16.396Z,20.93
2022-09-23T18:36:42.133Z,20.90
2022-09-23T18:39:07.686Z,20.91
2022-09-23T18:41:33.361Z,20.93
2022-09-23T18:43:58.910Z,20.93
2022-09-23T18:46:25.569Z,20.91
2022-09-23T18:49:11.201Z,20.91
2022-09-23T18:51:37.790Z,20.90
2022-09-23T18:54:04.593Z,20.91
2022-09-23T18:56:36.306Z,20.92
2022-09-23T18:59:04.356Z,20.89
2022-09-23T19:01:30.014Z,20.92
2022-09-23T19:03:56.014Z,20.91
2022-09-23T19:06:21.644Z,20.90
2022-09-23T19:08:48.665Z,20.90
2022-09-23T19:11:14.937Z,20.89
2022-09-23T19:13:40.480Z,20.91
2022-09-23T19:16:09.691Z,20.91
2022-09-23T19:18:36.285Z,20.91
2022-09-23T19:21:06.297Z,20.91
2022-09-23T19:23:33.988Z,20.91
2022-09-23T19:26:07.949Z,20.90
2022-09-23T19:28:33.497Z,20.90
2022-09-23T19:31:07.843Z,20.90
2022-09-23T19:33:33.417Z,20.91
2022-09-23T19:35:58.951Z,20.90
2022-09-23T19:38:25.469Z,20.89
2022-09-23T19:40:51.294Z,20.90
2022-09-23T19:43:16.960Z,20.91
2022-09-23T19:45:43.493Z,20.90
2022-09-23T19:48:09.482Z,20.90
2022-09-23T19:50:38.475Z,20.89
2022-09-23T19:53:04.803Z,20.90
2022-09-23T19:55:32.112Z,20.90
2022-09-23T19:57:57.654Z,20.91
2022-09-23T20:00:23.250Z,20.91
2022-09-23T20:02:48.933Z,20.90
2022-09-23T20:05:18.427Z,20.90
2022-09-23T20:07:45.829Z,20.87
2022-09-23T20:10:11.769Z,20.90
2022-09-23T20:12:37.318Z,20.91
2022-09-23T20:15:04.717Z,20.89
2022-09-23T20:17:30.714Z,20.90
2022-09-23T20:19:56.383Z,20.91
2022-09-23T20:22:27.528Z,20.91
2022-09-23T20:24:56.456Z,20.89
2022-09-23T20:27:22.526Z,20.90
2022-09-23T20:29:48.101Z,20.89
2022-09-23T20:32:13.825Z,20.89
2022-09-23T20:34:43.273Z,20.89
2022-09-23T20:37:09.976Z,20.88
2022-09-23T20:39:35.541Z,20.89
2022-09-23T20:42:01.882Z,20.89
2022-09-23T20:44:27.435Z,20.90
2022-09-23T20:46:53.061Z,20.90
2022-09-23T20:49:19.905Z,20.87
2022-09-23T20:51:47.100Z,20.89
2022-09-23T20:54:12.642Z,20.89
2022-09-23T20:56:38.279Z,20.89
2022-09-23T20:59:03.824Z,20.88
2022-09-23T21:01:31.631Z,20.88
2022-09-23T21:03:57.175Z,20.88
2022-09-23T21:06:25.311Z,20.88
2022-09-23T21:08:52.473Z,20.86
2022-09-23T21:11:18.010Z,20.87
2022-09-23T21:13:46.275Z,20.89
2022-09-23T21:16:11.885Z,20.89
2022-09-23T21:18:37.743Z,20.89
2022-09-23T21:21:03.669Z,20.86
2022-09-23T21:23:29.901Z,20.87
2022-09-23T21:25:59.048Z,20.88
2022-09-23T21:28:24.598Z,20.86
2022-09-23T21:30:52.057Z,20.86
2022-09-23T21:33:17.750Z,20.87
2022-09-23T21:35:43.472Z,20.87
2022-09-23T21:38:09.013Z,20.88
2022-09-23T21:40:54.517Z,20.87
2022-09-23T21:43:20.113Z,20.85
2022-09-23T21:45:46.433Z,20.86
2022-09-23T21:48:12.014Z,20.85
2022-09-23T21:50:39.936Z,20.86
2022-09-23T21:53:06.432Z,20.87
2022-09-23T21:55:31.985Z,20.87
2022-09-23T21:57:57.651Z,20.86
2022-09-23T22:00:23.205Z,20.85
2022-09-23T22:02:48.747Z,20.87
2022-09-23T22:05:14.295Z,20.87
2022-09-23T22:07:39.838Z,20.86
2022-09-23T22:10:05.655Z,20.87
2022-09-23T22:12:31.496Z,20.85
2022-09-23T22:14:57.052Z,20.85
2022-09-23T22:17:22.881Z,20.85
2022-09-23T22:19:48.463Z,20.85
2022-09-23T22:22:14.940Z,20.86
2022-09-23T22:24:40.790Z,20.84
2022-09-23T22:27:06.714Z,20.85
2022-09-23T22:29:52.163Z,20.84
2022-09-23T22:32:37.679Z,20.85
2022-09-23T22:35:03.424Z,20.87
2022-09-23T22:37:29.626Z,20.86
2022-09-23T22:39:55.180Z,20.87
2022-09-23T22:42:21.419Z,20.86
2022-09-23T22:44:47.232Z,20.85
2022-09-23T22:47:12.781Z,20.86
2022-09-23T22:49:38.336Z,20.84
2022-09-23T22:52:08.273Z,20.85
2022-09-23T22:54:34.376Z,20.84
2022-09-23T22:57:02.304Z,20.85
2022-09-23T22:59:27.856Z,20.84
2022-09-23T23:01:53.557Z,20.83
2022-09-23T23:04:19.174Z,20.83
2022-09-23T23:06:44.859Z,20.84
2022-09-23T23:09:14.772Z,20.84
2022-09-23T23:11:41.333Z,20.84
2022-09-23T23:14:07.535Z,20.85
2022-09-23T23:16:34.728Z,20.85
2022-09-23T23:19:03.387Z,20.83
2022-09-23T23:21:28.955Z,20.84
2022-09-23T23:23:54.503Z,20.85
2022-09-23T23:26:21.320Z,20.84
2022-09-23T23:28:47.070Z,20.83
2022-09-23T23:31:13.311Z,20.82
2022-09-23T23:33:38.942Z,20.83
2022-09-23T23:36:04.855Z,20.83
2022-09-23T23:38:30.393Z,20.83
2022-09-23T23:40:55.993Z,20.84
2022-09-23T23:43:22.526Z,20.83
2022-09-23T23:45:50.687Z,20.83
2022-09-23T23:48:17.367Z,20.81
2022-09-23T23:50:43.638Z,20.82
2022-09-23T23:53:11.068Z,20.83
2022-09-23T23:55:37.145Z,20.82
2022-09-23T23:58:02.864Z,20.84
